Time;durP1;ratioP1;P1;durP2;ratioP2;P2;SDS_P1;SDS_P2;PMS_P1;PMS_P2;Temp;Humidity;BMP_temperature;BMP_pressure;BME280_temperature;BME280_humidity;BME280_pressure;Samples;Min_cycle;Max_cycle;Signal;HPM_P1;HPM_P2
2021/01/14 00:02:00;;;;;;;6.87;2.53;;;2.00;99.90;;;;;;4073147;29;20476;-55
2021/01/14 00:04:02;;;;;;;6.73;2.20;;;2.00;99.90;;;;;;4074257;29;20476;-55
2021/01/14 00:06:03;;;;;;;8.87;2.27;;;2.00;99.90;;;;;;4073623;29;20615;-55
2021/01/14 00:08:06;;;;;;;6.80;2.17;;;1.90;99.90;;;;;;4074444;29;20475;-55
2021/01/14 00:10:10;;;;;;;7.70;2.40;;;1.90;99.90;;;;;;4073929;29;20485;-55
2021/01/14 00:12:12;;;;;;;9.43;2.37;;;1.80;99.90;;;;;;4072270;29;20480;-54
2021/01/14 00:14:13;;;;;;;7.23;2.00;;;1.80;99.90;;;;;;4074291;29;21261;-55
2021/01/14 00:16:14;;;;;;;9.43;2.20;;;1.70;99.90;;;;;;4073194;29;20541;-55
2021/01/14 00:18:16;;;;;;;9.10;2.40;;;1.70;99.90;;;;;;4074912;29;20481;-55
2021/01/14 00:20:19;;;;;;;6.70;2.40;;;1.70;99.90;;;;;;4073720;29;20487;-55
2021/01/14 00:22:20;;;;;;;10.17;2.43;;;1.70;99.90;;;;;;4075032;29;20473;-55
2021/01/14 00:24:22;;;;;;;7.40;2.17;;;1.70;99.90;;;;;;4073969;29;20511;-55
2021/01/14 00:26:24;;;;;;;9.30;2.27;;;1.70;99.90;;;;;;4072563;29;20481;-55
2021/01/14 00:28:25;;;;;;;9.43;2.10;;;1.80;99.90;;;;;;4073782;29;20464;-56
2021/01/14 00:30:28;;;;;;;5.53;1.80;;;1.80;99.90;;;;;;4074089;29;20555;-60
2021/01/14 00:32:29;;;;;;;6.77;2.27;;;1.80;99.90;;;;;;4073689;29;21110;-60
2021/01/14 00:34:31;;;;;;;8.67;2.30;;;1.80;99.90;;;;;;4073027;29;20492;-61
2021/01/14 00:36:33;;;;;;;10.63;2.60;;;1.80;99.90;;;;;;4074175;29;20514;-60
2021/01/14 00:38:34;;;;;;;7.43;2.40;;;1.80;99.90;;;;;;4074127;29;20490;-60
2021/01/14 00:40:37;;;;;;;9.53;2.13;;;1.70;99.90;;;;;;4075225;29;20462;-60
2021/01/14 00:42:38;;;;;;;8.97;2.60;;;1.70;99.90;;;;;;4074728;29;20278;-61
2021/01/14 00:44:40;;;;;;;8.20;2.47;;;1.60;99.90;;;;;;4077103;29;20540;-59
2021/01/14 00:46:41;;;;;;;4.80;1.60;;;1.60;99.90;;;;;;4076060;29;20467;-60
2021/01/14 00:48:43;;;;;;;6.57;2.17;;;1.60;99.90;;;;;;4075528;29;20479;-61
2021/01/14 00:50:44;;;;;;;9.33;2.17;;;1.50;99.90;;;;;;4075349;29;20483;-59
2021/01/14 00:52:45;;;;;;;7.53;2.60;;;1.50;99.90;;;;;;4075446;29;20489;-61
2021/01/14 00:54:46;;;;;;;10.33;1.97;;;1.50;99.90;;;;;;4075726;29;20497;-61
2021/01/14 00:56:49;;;;;;;5.17;2.20;;;1.50;99.90;;;;;;4077640;29;20989;-61
2021/01/14 00:58:50;;;;;;;12.50;3.40;;;1.50;99.90;;;;;;4076381;29;20557;-61
2021/01/14 01:00:51;;;;;;;10.27;3.00;;;1.50;99.90;;;;;;4074999;29;20898;-60
2021/01/14 01:02:53;;;;;;;12.70;2.37;;;1.50;99.90;;;;;;4076564;29;20922;-61
2021/01/14 01:04:54;;;;;;;5.23;1.60;;;1.50;99.90;;;;;;4081026;29;20470;-60
2021/01/14 01:06:56;;;;;;;8.53;2.07;;;1.50;99.90;;;;;;4076243;29;20474;-61
2021/01/14 01:08:58;;;;;;;9.33;1.93;;;1.50;99.90;;;;;;4074657;29;20478;-60
2021/01/14 01:10:59;;;;;;;3.57;1.63;;;1.50;99.90;;;;;;4076252;29;20528;-60
2021/01/14 01:13:01;;;;;;;6.53;1.50;;;1.40;99.90;;;;;;4076657;29;20533;-60
2021/01/14 01:15:04;;;;;;;6.53;1.30;;;1.40;99.90;;;;;;4075685;29;20499;-61
2021/01/14 01:17:05;;;;;;;7.17;1.50;;;1.30;99.90;;;;;;4073622;29;20480;-61
2021/01/14 01:19:07;;;;;;;4.07;1.50;;;1.20;99.90;;;;;;4076607;29;20617;-60
2021/01/14 01:21:08;;;;;;;8.30;1.57;;;1.10;99.90;;;;;;4075269;29;20544;-61
2021/01/14 01:23:10;;;;;;;5.67;1.40;;;1.00;99.90;;;;;;4076456;29;20502;-62
2021/01/14 01:25:12;;;;;;;7.57;1.37;;;0.90;99.90;;;;;;4075361;29;20471;-60
2021/01/14 01:27:13;;;;;;;4.37;1.13;;;0.90;99.90;;;;;;4075777;29;20489;-60
2021/01/14 01:29:15;;;;;;;14.40;1.30;;;0.80;99.90;;;;;;4076011;29;20501;-61
2021/01/14 01:31:16;;;;;;;4.17;1.00;;;0.80;99.90;;;;;;4075716;29;20483;-61
2021/01/14 01:33:18;;;;;;;5.60;1.10;;;0.80;99.90;;;;;;4075313;29;20486;-61
2021/01/14 01:35:19;;;;;;;6.53;1.33;;;0.80;99.90;;;;;;4075640;29;20501;-61
2021/01/14 01:37:20;;;;;;;3.10;1.10;;;0.80;99.90;;;;;;4076125;29;20483;-61
2021/01/14 01:39:22;;;;;;;5.83;1.40;;;0.70;99.90;;;;;;4075353;29;21041;-60
2021/01/14 01:41:23;;;;;;;4.97;1.43;;;0.60;99.90;;;;;;4075571;29;20963;-61
2021/01/14 01:43:25;;;;;;;3.50;1.03;;;0.50;99.90;;;;;;4075740;29;20478;-60
2021/01/14 01:45:27;;;;;;;12.50;1.40;;;0.50;99.90;;;;;;4074672;29;20471;-60
2021/01/14 01:47:33;;;;;;;3.60;1.20;;;0.40;99.90;;;;;;4075369;29;20485;-60
2021/01/14 01:49:35;;;;;;;13.40;1.10;;;0.40;99.90;;;;;;4078169;29;20470;-58
2021/01/14 01:51:41;;;;;;;5.80;1.37;;;0.30;99.90;;;;;;4074747;29;20484;-59
2021/01/14 01:53:42;;;;;;;6.17;1.30;;;0.30;99.90;;;;;;4076571;29;20476;-59
2021/01/14 01:55:45;;;;;;;4.67;1.00;;;0.30;99.90;;;;;;4076450;29;21006;-60
2021/01/14 01:57:46;;;;;;;6.70;1.50;;;0.30;99.90;;;;;;4075332;29;20498;-59
2021/01/14 01:59:48;;;;;;;7.83;1.80;;;0.40;99.90;;;;;;4075241;29;20471;-59
2021/01/14 02:01:50;;;;;;;5.97;1.37;;;0.40;99.90;;;;;;4074261;29;20923;-59
2021/01/14 02:03:52;;;;;;;5.30;1.25;;;0.50;99.90;;;;;;4074258;29;20489;-59
2021/01/14 02:05:53;;;;;;;9.53;1.43;;;0.50;99.90;;;;;;4074025;29;20666;-59
2021/01/14 02:08:06;;;;;;;5.00;0.90;;;0.50;99.90;;;;;;4076207;29;20486;-59
2021/01/14 02:10:13;;;;;;;6.77;1.40;;;0.60;99.90;;;;;;4074812;29;20486;-59
2021/01/14 02:12:15;;;;;;;5.00;1.10;;;0.60;99.90;;;;;;4073534;29;20505;-59
2021/01/14 02:14:19;;;;;;;6.00;1.50;;;0.70;99.90;;;;;;4075778;29;20493;-59
2021/01/14 02:16:22;;;;;;;12.83;1.10;;;0.70;99.90;;;;;;4075614;29;20533;-59
2021/01/14 02:18:25;;;;;;;3.37;0.70;;;0.80;99.90;;;;;;4075758;29;20484;-59
2021/01/14 02:20:27;;;;;;;4.57;1.03;;;0.80;99.90;;;;;;4073987;29;20490;-59
2021/01/14 02:22:32;;;;;;;4.90;1.00;;;0.80;99.90;;;;;;4074986;29;20608;-59
2021/01/14 02:24:40;;;;;;;10.10;1.17;;;0.80;99.90;;;;;;4075647;29;20490;-59
2021/01/14 02:26:44;;;;;;;4.37;1.00;;;0.80;99.90;;;;;;4076222;29;20580;-59
2021/01/14 02:28:46;;;;;;;3.90;1.20;;;0.90;99.90;;;;;;4074097;29;20545;-59
2021/01/14 02:30:48;;;;;;;11.10;1.13;;;0.80;99.90;;;;;;4076336;29;20481;-59
2021/01/14 02:32:49;;;;;;;4.40;1.27;;;0.80;99.90;;;;;;4076392;29;20481;-59
2021/01/14 02:34:51;;;;;;;9.03;1.03;;;0.80;99.90;;;;;;4074268;29;20542;-59
2021/01/14 02:36:52;;;;;;;6.63;1.30;;;0.70;99.90;;;;;;4075221;29;20474;-59
2021/01/14 02:38:54;;;;;;;2.90;0.90;;;0.70;99.90;;;;;;4074569;29;20481;-59
2021/01/14 02:40:56;;;;;;;6.53;1.33;;;0.60;99.90;;;;;;4076187;29;20616;-59
2021/01/14 02:42:58;;;;;;;5.77;1.10;;;0.60;99.90;;;;;;4073410;29;20497;-59
2021/01/14 02:44:59;;;;;;;4.87;1.37;;;0.60;99.90;;;;;;4072869;29;20474;-58
2021/01/14 02:47:03;;;;;;;6.33;1.13;;;0.60;99.90;;;;;;4072647;29;20486;-58
2021/01/14 02:49:07;;;;;;;6.37;1.40;;;0.50;99.90;;;;;;4072047;29;20911;-58
2021/01/14 02:51:14;;;;;;;11.23;1.03;;;0.50;99.90;;;;;;4072478;29;20490;-59
2021/01/14 02:53:16;;;;;;;5.13;0.90;;;0.60;99.90;;;;;;4072109;29;20487;-58
2021/01/14 02:55:18;;;;;;;7.37;1.30;;;0.60;99.90;;;;;;4074051;29;20986;-58
2021/01/14 02:57:19;;;;;;;3.23;0.90;;;0.60;99.90;;;;;;4072343;29;20493;-58
2021/01/14 02:59:22;;;;;;;5.97;1.10;;;0.60;99.90;;;;;;4073052;29;20614;-58
2021/01/14 03:01:23;;;;;;;4.57;0.90;;;0.70;99.90;;;;;;4073402;29;20495;-58
2021/01/14 03:03:24;;;;;;;8.00;1.20;;;0.70;99.90;;;;;;4073737;28;20561;-58
2021/01/14 03:05:26;;;;;;;5.27;1.10;;;0.70;99.90;;;;;;4073597;29;20803;-58
2021/01/14 03:07:27;;;;;;;7.27;1.20;;;0.70;99.90;;;;;;4074055;29;20480;-57
2021/01/14 03:09:28;;;;;;;3.27;0.83;;;0.70;99.90;;;;;;4071804;29;20471;-58
2021/01/14 03:11:31;;;;;;;3.63;0.80;;;0.70;99.90;;;;;;4073381;29;20475;-58
2021/01/14 03:13:32;;;;;;;7.93;1.23;;;0.70;99.90;;;;;;4072394;29;20471;-58
2021/01/14 03:15:34;;;;;;;3.63;0.93;;;0.60;99.90;;;;;;4072906;29;20495;-58
2021/01/14 03:17:36;;;;;;;7.87;1.20;;;0.60;99.90;;;;;;4073410;29;21044;-58
2021/01/14 03:19:37;;;;;;;4.53;0.90;;;0.60;99.90;;;;;;4075911;29;20525;-58
2021/01/14 03:21:39;;;;;;;7.07;1.17;;;0.60;99.90;;;;;;4075514;29;20474;-59
2021/01/14 03:23:40;;;;;;;5.43;1.13;;;0.60;99.90;;;;;;4075906;29;20501;-58
2021/01/14 03:25:42;;;;;;;5.33;1.00;;;0.60;99.90;;;;;;4072553;29;20929;-59
2021/01/14 03:27:44;;;;;;;9.20;1.40;;;0.70;99.90;;;;;;4072740;29;20568;-58
2021/01/14 03:29:45;;;;;;;6.27;1.00;;;0.70;99.90;;;;;;4075072;29;20477;-58
2021/01/14 03:31:47;;;;;;;5.43;1.00;;;0.70;99.90;;;;;;4072782;29;20474;-58
2021/01/14 03:33:50;;;;;;;6.97;0.93;;;0.70;99.90;;;;;;4075233;29;20804;-58
2021/01/14 03:35:51;;;;;;;2.27;1.00;;;0.70;99.90;;;;;;4074859;29;20490;-58
2021/01/14 03:37:52;;;;;;;8.20;1.77;;;0.70;99.90;;;;;;4075667;29;20477;-58
2021/01/14 03:39:54;;;;;;;7.17;1.03;;;0.70;99.90;;;;;;4077296;29;20534;-58
2021/01/14 03:41:57;;;;;;;8.57;1.03;;;0.70;99.90;;;;;;4074716;29;22236;-58
2021/01/14 03:43:58;;;;;;;3.43;0.90;;;0.70;99.90;;;;;;4071838;29;20506;-58
2021/01/14 03:45:59;;;;;;;5.77;0.93;;;0.70;99.90;;;;;;4072112;29;20472;-58
2021/01/14 03:48:01;;;;;;;2.10;0.73;;;0.60;99.90;;;;;;4073459;29;20470;-58
2021/01/14 03:50:03;;;;;;;6.13;1.20;;;0.60;99.90;;;;;;4074517;29;20958;-57
2021/01/14 03:52:05;;;;;;;5.07;1.10;;;0.60;99.90;;;;;;4072758;29;20478;-59
2021/01/14 03:54:06;;;;;;;11.83;1.47;;;0.60;99.90;;;;;;4074424;29;20488;-58
2021/01/14 03:56:08;;;;;;;3.10;1.10;;;0.60;99.90;;;;;;4073139;29;20482;-58
2021/01/14 03:58:09;;;;;;;3.70;1.40;;;0.60;99.90;;;;;;4070464;29;20481;-58
2021/01/14 04:00:11;;;;;;;6.07;1.60;;;0.60;99.90;;;;;;4072472;29;20494;-57
2021/01/14 04:02:13;;;;;;;3.63;1.10;;;0.60;99.90;;;;;;4072297;29;20938;-58
2021/01/14 04:04:15;;;;;;;6.27;1.20;;;0.60;99.90;;;;;;4074090;29;20478;-58
2021/01/14 04:06:16;;;;;;;3.63;1.03;;;0.60;99.90;;;;;;4072970;29;21185;-58
2021/01/14 04:08:18;;;;;;;7.30;1.70;;;0.70;99.90;;;;;;4072610;29;20479;-57
2021/01/14 04:10:19;;;;;;;1.50;0.80;;;0.60;99.90;;;;;;4072014;29;20490;-58
2021/01/14 04:12:27;;;;;;;5.87;1.43;;;0.70;99.90;;;;;;4073751;29;20482;-57
2021/01/14 04:14:28;;;;;;;3.40;1.17;;;0.70;99.90;;;;;;4072970;28;20490;-58
2021/01/14 04:16:29;;;;;;;8.27;1.57;;;0.70;99.90;;;;;;4075883;29;20508;-57
2021/01/14 04:18:31;;;;;;;5.17;1.23;;;0.70;99.90;;;;;;4077268;29;20503;-58
2021/01/14 04:20:33;;;;;;;5.13;1.50;;;0.60;99.90;;;;;;4076912;29;20485;-57
2021/01/14 04:22:34;;;;;;;5.13;1.30;;;0.60;99.90;;;;;;4078175;29;20475;-56
2021/01/14 04:24:37;;;;;;;4.00;1.17;;;0.60;99.90;;;;;;4075979;29;20512;-57
2021/01/14 04:26:38;;;;;;;6.00;1.20;;;0.60;99.90;;;;;;4076830;29;20477;-56
2021/01/14 04:28:40;;;;;;;4.93;1.70;;;0.60;99.90;;;;;;4078159;29;20497;-57
2021/01/14 04:30:42;;;;;;;3.20;1.13;;;0.60;99.90;;;;;;4075343;29;20478;-56
2021/01/14 04:32:43;;;;;;;4.30;1.30;;;0.60;99.90;;;;;;4075683;29;20487;-57
2021/01/14 04:34:44;;;;;;;10.17;1.90;;;0.60;99.90;;;;;;4074689;29;20498;-58
2021/01/14 04:36:47;;;;;;;2.40;1.10;;;0.60;99.90;;;;;;4076240;29;20475;-57
2021/01/14 04:38:48;;;;;;;7.50;2.40;;;0.60;99.90;;;;;;4076608;29;20483;-57
2021/01/14 04:40:56;;;;;;;2.13;1.53;;;0.70;99.90;;;;;;4074495;29;20486;-57
2021/01/14 04:42:57;;;;;;;5.17;1.43;;;0.70;99.90;;;;;;4076407;29;20471;-57
2021/01/14 04:44:59;;;;;;;3.77;1.30;;;0.60;99.90;;;;;;4076108;29;20485;-56
2021/01/14 04:47:07;;;;;;;5.43;1.37;;;0.60;99.90;;;;;;4076283;29;20479;-59
2021/01/14 04:49:08;;;;;;;4.93;1.60;;;0.60;99.90;;;;;;4074826;29;20542;-59
2021/01/14 04:51:12;;;;;;;2.73;1.40;;;0.60;99.90;;;;;;4075984;29;20482;-56
2021/01/14 04:53:14;;;;;;;6.03;1.47;;;0.60;99.90;;;;;;4075902;29;20562;-56
2021/01/14 04:55:21;;;;;;;6.00;1.40;;;0.60;99.90;;;;;;4075074;29;20505;-56
2021/01/14 04:57:29;;;;;;;6.00;1.67;;;0.60;99.90;;;;;;4074005;29;20470;-56
2021/01/14 04:59:32;;;;;;;4.83;1.50;;;0.60;99.90;;;;;;4075408;29;20490;-56
2021/01/14 05:01:35;;;;;;;6.33;1.63;;;0.50;99.90;;;;;;4077127;29;20497;-55
2021/01/14 05:03:40;;;;;;;3.17;1.63;;;0.50;99.90;;;;;;4075663;29;20518;-56
2021/01/14 05:05:46;;;;;;;5.53;1.60;;;0.50;99.90;;;;;;4074603;29;20471;-56
2021/01/14 05:08:03;;;;;;;7.00;2.20;;;0.50;99.90;;;;;;4077504;29;21019;-56
2021/01/14 05:10:07;;;;;;;4.83;1.90;;;0.60;99.90;;;;;;4076461;29;20490;-56
2021/01/14 05:12:10;;;;;;;3.77;1.50;;;0.60;99.90;;;;;;4077040;29;20487;-56
2021/01/14 05:14:11;;;;;;;5.20;1.80;;;0.50;99.90;;;;;;4074939;29;20605;-56
2021/01/14 05:16:13;;;;;;;4.53;1.70;;;0.50;99.90;;;;;;4075565;29;20992;-56
2021/01/14 05:18:15;;;;;;;5.97;2.20;;;0.50;99.90;;;;;;4075267;29;20959;-56
2021/01/14 05:20:16;;;;;;;5.63;2.00;;;0.50;99.90;;;;;;4075639;29;20969;-56
2021/01/14 05:22:19;;;;;;;6.20;1.83;;;0.50;99.90;;;;;;4075588;29;21006;-57
2021/01/14 05:24:20;;;;;;;4.73;1.93;;;0.50;99.90;;;;;;4075467;29;20495;-58
2021/01/14 05:26:30;;;;;;;4.83;1.63;;;0.50;99.90;;;;;;4074582;28;20488;-58
2021/01/14 05:28:32;;;;;;;4.40;2.10;;;0.50;99.90;;;;;;4077393;29;21010;-58
2021/01/14 05:30:33;;;;;;;5.20;1.80;;;0.50;99.90;;;;;;4075049;29;20479;-59
2021/01/14 05:32:36;;;;;;;9.10;1.97;;;0.50;99.90;;;;;;4075645;29;20868;-58
2021/01/14 05:34:47;;;;;;;6.43;2.00;;;0.50;99.90;;;;;;4076601;29;21092;-58
2021/01/14 05:36:57;;;;;;;7.60;1.67;;;0.50;99.90;;;;;;4076024;29;20480;-59
2021/01/14 05:38:58;;;;;;;6.43;2.00;;;0.50;99.90;;;;;;4075187;29;21162;-58
2021/01/14 05:41:18;;;;;;;4.87;1.43;;;0.40;99.90;;;;;;4073999;29;20474;-58
2021/01/14 05:43:20;;;;;;;4.70;1.50;;;0.40;99.90;;;;;;4076115;29;20569;-58
2021/01/14 05:45:22;;;;;;;5.83;2.23;;;0.40;99.90;;;;;;4075140;29;20496;-58
2021/01/14 05:47:25;;;;;;;3.47;1.83;;;0.40;99.90;;;;;;4074138;29;20471;-58
2021/01/14 05:49:27;;;;;;;2.77;1.70;;;0.40;99.90;;;;;;4073501;29;20510;-58
2021/01/14 05:51:30;;;;;;;5.70;1.90;;;0.40;99.90;;;;;;4075403;29;20981;-57
2021/01/14 05:53:36;;;;;;;8.77;1.70;;;0.40;99.90;;;;;;4076077;29;21015;-58
2021/01/14 05:55:41;;;;;;;4.00;1.73;;;0.40;99.90;;;;;;4075797;29;20944;-58
2021/01/14 05:58:01;;;;;;;3.30;1.63;;;0.40;99.90;;;;;;4075452;29;20474;-58
2021/01/14 06:00:09;;;;;;;3.77;1.87;;;0.40;99.90;;;;;;4074503;29;20466;-58
2021/01/14 06:02:11;;;;;;;11.83;1.67;;;0.40;99.90;;;;;;4076096;29;20483;-58
2021/01/14 06:04:19;;;;;;;8.63;1.80;;;0.40;99.90;;;;;;4074380;29;20478;-58
2021/01/14 06:06:21;;;;;;;6.90;1.87;;;0.40;99.90;;;;;;4074829;29;20537;-58
2021/01/14 06:08:24;;;;;;;3.77;1.70;;;0.40;99.90;;;;;;4076113;29;21112;-58
2021/01/14 06:10:32;;;;;;;4.67;1.67;;;0.40;99.90;;;;;;4074236;29;20509;-56
2021/01/14 06:12:34;;;;;;;7.53;1.60;;;0.40;99.90;;;;;;4073457;29;20497;-56
2021/01/14 06:14:35;;;;;;;3.73;1.50;;;0.40;99.90;;;;;;4073130;29;20486;-59
2021/01/14 06:16:50;;;;;;;4.17;1.63;;;0.40;99.90;;;;;;4073187;29;20482;-56
2021/01/14 06:19:07;;;;;;;4.23;1.40;;;0.40;99.90;;;;;;4075945;29;20492;-58
2021/01/14 06:21:09;;;;;;;3.13;1.60;;;0.30;99.90;;;;;;4075747;29;21187;-58
2021/01/14 06:23:10;;;;;;;3.40;1.40;;;0.30;99.90;;;;;;4074324;29;20482;-54
2021/01/14 06:25:13;;;;;;;3.60;1.53;;;0.30;99.90;;;;;;4075608;29;20470;-58
2021/01/14 06:27:14;;;;;;;7.13;1.80;;;0.30;99.90;;;;;;4075846;29;21208;-58
2021/01/14 06:29:20;;;;;;;3.80;1.73;;;0.30;99.90;;;;;;4075809;29;20474;-55
2021/01/14 06:31:26;;;;;;;6.90;1.80;;;0.30;99.90;;;;;;4073474;29;20485;-56
2021/01/14 06:33:29;;;;;;;3.80;1.33;;;0.30;99.90;;;;;;4074668;29;20473;-58
2021/01/14 06:35:31;;;;;;;4.80;1.60;;;0.30;99.90;;;;;;4075002;29;20510;-56
2021/01/14 06:37:36;;;;;;;4.23;1.40;;;0.30;99.90;;;;;;4074300;29;20475;-59
2021/01/14 06:39:41;;;;;;;4.97;1.23;;;0.30;99.90;;;;;;4075769;29;20489;-59
2021/01/14 06:41:45;;;;;;;4.53;1.40;;;0.30;99.90;;;;;;4073244;29;20482;-55
2021/01/14 06:43:48;;;;;;;7.23;1.33;;;0.30;99.90;;;;;;4074722;29;20493;-59
2021/01/14 06:45:55;;;;;;;5.10;1.77;;;0.30;99.90;;;;;;4075416;29;20485;-58
2021/01/14 06:48:04;;;;;;;4.43;1.07;;;0.30;99.90;;;;;;4074487;29;20471;-59
2021/01/14 06:50:24;;;;;;;2.37;1.23;;;0.30;99.90;;;;;;4076188;29;20470;-55
2021/01/14 06:52:28;;;;;;;5.80;1.20;;;0.30;99.90;;;;;;4073983;29;20492;-56
2021/01/14 06:54:37;;;;;;;4.40;1.23;;;0.30;99.90;;;;;;4075446;29;20477;-56
2021/01/14 06:56:47;;;;;;;4.00;1.20;;;0.30;99.90;;;;;;4074354;29;20481;-56
2021/01/14 06:58:51;;;;;;;3.53;1.30;;;0.30;99.90;;;;;;4074256;29;20486;-56
2021/01/14 07:01:01;;;;;;;2.93;0.93;;;0.30;99.90;;;;;;4074063;29;20478;-56
2021/01/14 07:03:20;;;;;;;2.90;1.10;;;0.30;99.90;;;;;;4074216;29;20482;-57
2021/01/14 07:05:34;;;;;;;2.13;1.10;;;0.30;99.90;;;;;;4075245;29;20489;-57
2021/01/14 07:07:46;;;;;;;2.87;1.43;;;0.30;99.90;;;;;;4073976;29;20477;-57
2021/01/14 07:10:04;;;;;;;7.37;1.63;;;0.30;99.90;;;;;;4071611;29;20557;-57
2021/01/14 07:12:08;;;;;;;1.60;0.83;;;0.30;99.90;;;;;;4074506;29;20496;-57
2021/01/14 07:14:14;;;;;;;3.60;1.10;;;0.30;99.90;;;;;;4073339;29;20992;-57
2021/01/14 07:16:17;;;;;;;3.33;1.10;;;0.30;99.90;;;;;;4074436;29;20491;-57
2021/01/14 07:18:27;;;;;;;6.17;1.10;;;0.30;99.90;;;;;;4074517;29;21020;-57
2021/01/14 07:20:31;;;;;;;4.67;1.20;;;0.30;99.90;;;;;;4073020;29;20488;-57
2021/01/14 07:22:33;;;;;;;6.23;1.20;;;0.30;99.90;;;;;;4074830;29;22255;-57
2021/01/14 07:24:36;;;;;;;5.37;1.30;;;0.30;99.90;;;;;;4074443;29;20534;-57
2021/01/14 07:26:43;;;;;;;5.30;1.50;;;0.30;99.90;;;;;;4075912;29;20479;-57
2021/01/14 07:28:45;;;;;;;4.17;1.33;;;0.30;99.90;;;;;;4077865;29;20474;-58
2021/01/14 07:30:47;;;;;;;4.60;1.33;;;0.30;99.90;;;;;;4074187;29;20487;-57
2021/01/14 07:32:53;;;;;;;2.03;1.00;;;0.30;99.90;;;;;;4074566;29;20986;-57
2021/01/14 07:34:56;;;;;;;6.67;1.10;;;0.20;99.90;;;;;;4073026;29;20505;-57
2021/01/14 07:36:58;;;;;;;2.93;1.30;;;0.20;99.90;;;;;;4074835;29;20488;-57
2021/01/14 07:38:59;;;;;;;7.67;1.30;;;0.20;99.90;;;;;;4074887;29;20478;-57
2021/01/14 07:41:00;;;;;;;2.27;1.00;;;0.20;99.90;;;;;;4072614;29;20481;-57
2021/01/14 07:43:05;;;;;;;4.00;1.20;;;0.20;99.90;;;;;;4073843;29;20944;-57
2021/01/14 07:45:14;;;;;;;4.30;1.33;;;0.20;99.90;;;;;;4075513;29;20510;-57
2021/01/14 07:47:32;;;;;;;1.60;0.90;;;0.30;99.90;;;;;;4073663;29;20470;-57
2021/01/14 07:49:35;;;;;;;4.90;1.33;;;0.30;99.90;;;;;;4073565;29;20484;-60
2021/01/14 07:51:47;;;;;;;2.43;1.50;;;0.30;99.90;;;;;;4077387;29;20490;-57
2021/01/14 07:54:06;;;;;;;5.97;1.30;;;0.30;99.90;;;;;;4078219;29;20563;-57
2021/01/14 07:56:24;;;;;;;4.43;1.50;;;0.30;99.90;;;;;;4076490;29;20498;-57
2021/01/14 07:58:25;;;;;;;3.57;1.57;;;0.30;99.90;;;;;;4077241;29;20477;-58
2021/01/14 08:00:27;;;;;;;2.43;1.30;;;0.30;99.90;;;;;;4076244;29;20474;-57
2021/01/14 08:02:28;;;;;;;6.13;1.40;;;0.40;99.90;;;;;;4076893;29;20477;-57
2021/01/14 08:04:29;;;;;;;5.37;1.50;;;0.40;99.90;;;;;;4077735;29;20474;-57
2021/01/14 08:06:35;;;;;;;3.37;1.30;;;0.40;99.90;;;;;;4076217;29;20470;-57
2021/01/14 08:08:37;;;;;;;3.73;1.10;;;0.40;99.90;;;;;;4076013;29;20482;-57
2021/01/14 08:10:39;;;;;;;4.93;1.53;;;0.50;99.90;;;;;;4075173;29;20470;-57
2021/01/14 08:12:45;;;;;;;4.87;1.60;;;0.50;99.90;;;;;;4078068;29;20477;-57
2021/01/14 08:14:47;;;;;;;4.80;1.60;;;0.60;99.90;;;;;;4076985;29;21477;-57
2021/01/14 08:16:50;;;;;;;3.57;1.93;;;0.60;99.90;;;;;;4078389;29;20482;-57
2021/01/14 08:19:24;;;;;;;4.50;1.00;;;0.60;99.90;;;;;;4077511;29;20486;-57
2021/01/14 08:21:28;;;;;;;2.50;1.20;;;0.60;99.90;;;;;;4076952;29;20474;-58
2021/01/14 08:23:30;;;;;;;4.73;1.30;;;0.60;99.90;;;;;;4076359;29;20898;-56
2021/01/14 08:25:34;;;;;;;2.87;1.30;;;0.70;99.90;;;;;;4076447;29;20506;-57
2021/01/14 08:27:37;;;;;;;4.57;1.40;;;0.80;99.90;;;;;;4077257;29;20481;-57
2021/01/14 08:29:47;;;;;;;2.40;1.30;;;0.80;99.90;;;;;;4077332;29;20473;-57
2021/01/14 08:31:51;;;;;;;5.77;1.40;;;0.80;99.90;;;;;;4077624;29;20517;-52
2021/01/14 08:33:55;;;;;;;3.57;1.50;;;0.90;99.90;;;;;;4074707;29;21350;-52
2021/01/14 08:36:03;;;;;;;5.60;1.40;;;0.90;99.90;;;;;;4076251;29;20539;-53
2021/01/14 08:38:14;;;;;;;3.47;1.43;;;0.90;99.90;;;;;;4075763;29;20465;-52
2021/01/14 08:40:18;;;;;;;7.63;1.60;;;1.00;99.90;;;;;;4077181;29;20817;-52
2021/01/14 08:42:29;;;;;;;4.87;1.60;;;1.00;99.90;;;;;;4076038;29;20483;-52
2021/01/14 08:44:34;;;;;;;3.00;1.40;;;1.10;99.90;;;;;;4076495;29;20474;-52
2021/01/14 08:46:38;;;;;;;3.37;1.50;;;1.10;99.90;;;;;;4076662;29;21243;-52
2021/01/14 08:48:40;;;;;;;5.43;1.80;;;1.20;99.90;;;;;;4075915;29;20483;-52
2021/01/14 08:50:46;;;;;;;6.33;1.37;;;1.20;99.90;;;;;;4075838;29;21075;-52
2021/01/14 08:52:51;;;;;;;6.00;1.50;;;1.20;99.90;;;;;;4076627;29;20479;-52
2021/01/14 08:54:53;;;;;;;5.83;1.53;;;1.20;99.90;;;;;;4076275;29;20507;-52
2021/01/14 08:57:04;;;;;;;6.57;1.77;;;1.20;99.90;;;;;;4075694;29;20499;-53
2021/01/14 08:59:12;;;;;;;3.17;2.07;;;1.30;99.90;;;;;;4075662;29;20468;-53
2021/01/14 09:01:17;;;;;;;7.07;1.73;;;1.30;99.90;;;;;;4075062;29;20482;-53
2021/01/14 09:03:18;;;;;;;3.47;1.80;;;1.30;99.90;;;;;;4074105;29;20485;-52
2021/01/14 09:05:20;;;;;;;5.27;1.70;;;1.30;99.90;;;;;;4075513;29;20491;-52
2021/01/14 09:07:21;;;;;;;4.77;1.87;;;1.40;99.90;;;;;;4074609;29;20475;-52
2021/01/14 09:09:22;;;;;;;4.17;1.50;;;1.50;99.90;;;;;;4075888;29;20586;-53
2021/01/14 09:11:24;;;;;;;5.90;1.87;;;1.50;99.90;;;;;;4075360;29;20478;-53
2021/01/14 09:13:28;;;;;;;4.00;1.60;;;1.60;99.90;;;;;;4075008;29;20479;-53
2021/01/14 09:15:28;;;;;;;4.10;1.60;;;1.60;99.90;;;;;;4075551;29;20500;-55
2021/01/14 09:17:31;;;;;;;5.17;2.10;;;1.70;99.90;;;;;;4076098;29;20537;-53
2021/01/14 09:19:32;;;;;;;5.20;2.13;;;1.70;99.70;;;;;;4074889;29;20224;-53
2021/01/14 09:21:36;;;;;;;6.83;1.63;;;1.70;99.50;;;;;;4076624;29;20601;-53
2021/01/14 09:23:38;;;;;;;2.90;1.67;;;1.70;98.60;;;;;;4075130;29;20516;-52
2021/01/14 09:25:39;;;;;;;3.67;1.60;;;1.70;98.50;;;;;;4075201;29;20542;-53
2021/01/14 09:27:41;;;;;;;4.40;1.70;;;1.80;98.40;;;;;;4076660;29;20467;-54
2021/01/14 09:29:42;;;;;;;3.67;1.50;;;1.80;98.30;;;;;;4076497;29;20219;-53
2021/01/14 09:31:44;;;;;;;6.83;1.90;;;1.80;98.40;;;;;;4075264;29;20491;-52
2021/01/14 09:33:47;;;;;;;6.63;1.90;;;1.90;98.60;;;;;;4074456;29;20890;-53
2021/01/14 09:35:58;;;;;;;6.07;1.80;;;1.90;98.20;;;;;;4074271;29;22519;-54
2021/01/14 09:38:00;;;;;;;7.40;1.80;;;1.90;98.40;;;;;;4074015;29;20479;-53
2021/01/14 09:40:10;;;;;;;5.10;2.20;;;1.90;98.40;;;;;;4074519;29;20487;-54
2021/01/14 09:42:11;;;;;;;8.37;2.23;;;2.00;98.80;;;;;;4073956;29;20489;-54
2021/01/14 09:44:14;;;;;;;12.63;2.90;;;2.10;98.30;;;;;;4075878;29;20472;-53
2021/01/14 09:46:16;;;;;;;5.83;2.40;;;2.10;98.10;;;;;;4074953;29;20475;-53
2021/01/14 09:48:20;;;;;;;9.30;3.43;;;2.20;98.50;;;;;;4074133;29;20565;-53
2021/01/14 09:50:26;;;;;;;6.67;3.27;;;2.20;98.30;;;;;;4071675;29;20496;-52
2021/01/14 09:52:27;;;;;;;7.70;2.93;;;2.20;97.80;;;;;;4073736;29;20927;-57
2021/01/14 09:54:29;;;;;;;5.73;2.30;;;2.30;98.00;;;;;;4073957;29;20473;-53
2021/01/14 09:56:33;;;;;;;5.90;2.40;;;2.30;97.50;;;;;;4074390;29;21009;-53
2021/01/14 09:58:37;;;;;;;8.30;2.57;;;2.30;97.50;;;;;;4074340;29;20492;-53
2021/01/14 10:00:43;;;;;;;6.57;2.50;;;2.30;97.60;;;;;;4073742;29;20512;-53
2021/01/14 10:02:49;;;;;;;8.87;2.80;;;2.30;97.20;;;;;;4073235;29;20472;-55
2021/01/14 10:05:01;;;;;;;7.43;2.03;;;2.40;97.30;;;;;;4075344;29;20469;-53
2021/01/14 10:07:05;;;;;;;4.23;2.03;;;2.40;97.10;;;;;;4073916;29;20654;-53
2021/01/14 10:09:09;;;;;;;6.77;2.00;;;2.50;97.20;;;;;;4074743;29;20507;-54
2021/01/14 10:11:10;;;;;;;4.87;1.80;;;2.50;97.40;;;;;;4075720;29;20483;-54
2021/01/14 10:13:16;;;;;;;4.33;1.80;;;2.60;97.50;;;;;;4074980;29;21086;-53
2021/01/14 10:15:19;;;;;;;4.23;1.63;;;2.60;96.50;;;;;;4074497;29;21115;-55
2021/01/14 10:17:20;;;;;;;2.90;1.40;;;2.70;96.90;;;;;;4075296;29;20474;-55
2021/01/14 10:19:22;;;;;;;3.53;1.50;;;2.80;96.90;;;;;;4076354;29;20481;-53
2021/01/14 10:21:24;;;;;;;3.20;1.30;;;2.80;97.00;;;;;;4074794;29;20547;-53
2021/01/14 10:23:27;;;;;;;4.40;1.50;;;2.90;96.90;;;;;;4073967;29;20540;-53
2021/01/14 10:25:28;;;;;;;4.07;1.70;;;2.90;96.40;;;;;;4076073;29;20965;-54
2021/01/14 10:27:30;;;;;;;2.63;1.37;;;2.90;96.30;;;;;;4074144;29;20481;-54
2021/01/14 10:29:38;;;;;;;2.67;1.23;;;2.90;96.40;;;;;;4074482;29;20481;-54
2021/01/14 10:31:44;;;;;;;3.30;1.33;;;2.90;96.30;;;;;;4073864;29;20489;-54
2021/01/14 10:33:54;;;;;;;2.13;1.23;;;3.00;96.70;;;;;;4073580;29;20841;-54
2021/01/14 10:35:56;;;;;;;3.90;1.57;;;3.10;96.80;;;;;;4074024;29;20508;-56
2021/01/14 10:38:15;;;;;;;4.87;1.50;;;3.10;96.40;;;;;;4073769;29;20473;-55
2021/01/14 10:40:20;;;;;;;6.43;1.43;;;3.20;96.00;;;;;;4073591;29;20480;-55
2021/01/14 10:42:33;;;;;;;4.37;1.40;;;3.30;96.20;;;;;;4074323;29;20474;-54
2021/01/14 10:44:52;;;;;;;5.90;1.60;;;3.30;95.40;;;;;;4073780;29;20494;-59
2021/01/14 10:46:53;;;;;;;3.90;1.57;;;3.20;95.30;;;;;;4073415;29;20563;-54
2021/01/14 10:48:55;;;;;;;6.40;1.63;;;3.30;95.40;;;;;;4073485;29;22439;-59
2021/01/14 10:50:57;;;;;;;3.40;1.60;;;3.30;95.00;;;;;;4073872;29;20506;-54
2021/01/14 10:53:02;;;;;;;3.97;1.30;;;3.30;95.20;;;;;;4074385;29;20961;-54